createdAt,value
2019-02-17T00:02:45.404Z,101975.79
2019-02-17T00:07:38.258Z,101975.92
2019-02-17T00:12:31.092Z,101973.03
2019-02-17T00:17:24.054Z,101974.95
2019-02-17T00:22:16.963Z,101975.09
2019-02-17T00:27:09.823Z,101976.02
2019-02-17T00:32:02.710Z,101974.44
2019-02-17T00:36:55.569Z,101966.20
2019-02-17T00:41:48.457Z,101959.50
2019-02-17T00:46:41.327Z,101956.27
2019-02-17T00:51:34.186Z,101949.19
2019-02-17T00:56:27.045Z,101943.31
2019-02-17T01:01:19.903Z,101952.17
2019-02-17T01:06:12.796Z,101953.56
2019-02-17T01:11:05.654Z,101951.25
2019-02-17T01:15:59.639Z,101946.78
2019-02-17T01:20:52.468Z,101944.16
2019-02-17T01:25:45.460Z,101942.77
2019-02-17T01:30:38.515Z,101943.91
2019-02-17T01:35:31.398Z,101939.58
2019-02-17T01:40:24.229Z,101939.60
2019-02-17T01:45:17.130Z,101935.66
2019-02-17T01:50:10.037Z,101936.14
2019-02-17T01:55:03.147Z,101931.43
2019-02-17T01:59:55.989Z,101928.44
2019-02-17T02:04:48.856Z,101926.74
2019-02-17T02:09:41.725Z,101918.84
2019-02-17T02:14:34.595Z,101908.63
2019-02-17T02:19:27.467Z,101902.22
2019-02-17T02:24:20.298Z,101900.38
2019-02-17T02:29:13.199Z,101898.47
2019-02-17T02:34:06.084Z,101889.90
2019-02-17T02:38:58.986Z,101885.31
2019-02-17T02:43:51.925Z,101881.88
2019-02-17T02:48:44.946Z,101881.56
2019-02-17T02:53:37.840Z,101887.98
2019-02-17T02:58:31.149Z,101878.06
2019-02-17T03:03:24.005Z,101869.41
2019-02-17T03:08:16.874Z,101868.04
2019-02-17T03:13:09.740Z,101872.83
2019-02-17T03:18:02.644Z,101867.81
2019-02-17T03:22:55.512Z,101867.16
2019-02-17T03:27:48.385Z,101860.93
2019-02-17T03:32:41.271Z,101861.69
2019-02-17T03:37:34.126Z,101861.07
2019-02-17T03:42:27.042Z,101858.91
2019-02-17T03:47:19.900Z,101854.58
2019-02-17T03:52:12.799Z,101857.45
2019-02-17T03:57:05.672Z,101851.77
2019-02-17T04:01:58.646Z,101848.14
2019-02-17T04:06:51.547Z,101845.53
2019-02-17T04:11:44.390Z,101845.91
2019-02-17T04:16:37.287Z,101843.59
2019-02-17T04:21:30.130Z,101839.52
2019-02-17T04:26:23.023Z,101836.16
2019-02-17T04:31:15.943Z,101830.50
2019-02-17T04:36:08.813Z,101823.47
2019-02-17T04:41:01.684Z,101826.58
2019-02-17T04:45:54.542Z,101823.47
2019-02-17T04:50:48.591Z,101817.94
2019-02-17T04:55:41.439Z,101822.41
2019-02-17T05:00:40.117Z,101815.27
2019-02-17T05:05:29.060Z,101815.18
2019-02-17T05:10:21.945Z,101812.30
2019-02-17T05:15:14.780Z,101812.13
2019-02-17T05:20:08.536Z,101815.60
2019-02-17T05:25:01.383Z,101815.91
2019-02-17T05:29:54.263Z,101816.67
2019-02-17T05:34:47.092Z,101815.39
2019-02-17T05:39:39.962Z,101810.45
2019-02-17T05:44:32.839Z,101810.03
2019-02-17T05:49:25.728Z,101814.00
2019-02-17T05:54:18.533Z,101799.89
2019-02-17T05:59:11.411Z,101793.78
2019-02-17T06:04:04.374Z,101798.82
2019-02-17T06:08:58.763Z,101797.23
2019-02-17T06:13:51.645Z,101794.27
2019-02-17T06:18:44.496Z,101798.41
2019-02-17T06:23:37.366Z,101798.01
2019-02-17T06:28:30.262Z,101801.09
2019-02-17T06:33:25.004Z,101801.04
2019-02-17T06:38:17.928Z,101806.11
2019-02-17T06:43:10.799Z,101802.25
2019-02-17T06:48:03.705Z,101813.34
2019-02-17T06:52:56.591Z,101804.83
2019-02-17T06:57:49.495Z,101801.96
2019-02-17T07:02:42.348Z,101799.80
2019-02-17T07:07:35.210Z,101804.03
2019-02-17T07:12:28.092Z,101802.94
2019-02-17T07:17:20.938Z,101803.28
2019-02-17T07:22:13.814Z,101798.83
2019-02-17T07:27:06.702Z,101797.59
2019-02-17T07:31:59.548Z,101793.45
2019-02-17T07:36:52.423Z,101793.80
2019-02-17T07:41:45.257Z,101784.34
2019-02-17T07:46:38.133Z,101788.47
2019-02-17T07:51:30.985Z,101790.95
2019-02-17T07:56:23.852Z,101786.75
2019-02-17T08:01:16.719Z,101788.59
2019-02-17T08:06:09.610Z,101787.95
2019-02-17T08:11:04.326Z,101792.26
2019-02-17T08:15:57.248Z,101797.16
2019-02-17T08:20:50.180Z,101788.89
2019-02-17T08:25:43.054Z,101783.39
2019-02-17T08:30:35.965Z,101777.77
2019-02-17T08:35:28.843Z,101772.61
2019-02-17T08:40:21.709Z,101772.83
2019-02-17T08:45:14.582Z,101764.78
2019-02-17T08:50:09.420Z,101758.83
2019-02-17T08:55:02.314Z,101745.58
2019-02-17T08:59:55.156Z,101743.52
2019-02-17T09:04:49.833Z,101746.60
2019-02-17T09:09:42.700Z,101730.41
2019-02-17T09:14:35.598Z,101735.85
2019-02-17T09:19:28.461Z,101738.03
2019-02-17T09:24:21.422Z,101735.56
2019-02-17T09:29:14.252Z,101734.34
2019-02-17T09:34:07.115Z,101719.25
2019-02-17T09:38:59.998Z,101720.27
2019-02-17T09:43:52.847Z,101717.02
2019-02-17T09:48:45.707Z,101716.52
2019-02-17T09:53:38.585Z,101713.99
2019-02-17T09:58:31.811Z,101719.48
2019-02-17T10:03:24.663Z,101716.34
2019-02-17T10:08:17.557Z,101713.88
2019-02-17T10:13:10.427Z,101710.46
2019-02-17T10:18:03.316Z,101709.28
2019-02-17T10:35:25.095Z,101702.28
2019-02-17T10:40:17.993Z,101703.53
2019-02-17T10:45:11.321Z,101693.23
2019-02-17T10:50:04.614Z,101688.25
2019-02-17T10:54:57.509Z,101678.52
2019-02-17T10:59:50.399Z,101676.88
2019-02-17T11:04:43.255Z,101662.53
2019-02-17T11:09:36.196Z,101658.36
2019-02-17T11:14:29.064Z,101648.64
2019-02-17T11:19:21.947Z,101651.36
2019-02-17T11:24:15.405Z,101642.61
2019-02-17T11:29:08.337Z,101633.42
2019-02-17T11:34:01.257Z,101627.93
2019-02-17T11:38:54.317Z,101618.72
2019-02-17T11:43:48.727Z,101609.61
2019-02-17T11:48:43.144Z,101610.63
2019-02-17T11:53:36.041Z,101607.21
2019-02-17T11:58:28.913Z,101591.86
2019-02-17T12:03:22.174Z,101584.94
2019-02-17T12:08:15.087Z,101584.20
2019-02-17T12:13:07.976Z,101575.34
2019-02-17T12:18:00.837Z,101563.16
2019-02-17T12:22:58.580Z,101560.86
2019-02-17T12:28:02.492Z,101543.97
2019-02-17T12:32:55.419Z,101546.88
2019-02-17T12:37:48.320Z,101540.61
2019-02-17T12:42:41.206Z,101539.64
2019-02-17T12:47:34.063Z,101529.13
2019-02-17T12:52:26.929Z,101519.56
2019-02-17T12:57:19.802Z,101517.22
2019-02-17T13:02:12.754Z,101507.53
2019-02-17T13:07:05.598Z,101501.63
2019-02-17T13:12:00.491Z,101496.08
2019-02-17T13:16:53.355Z,101484.25
2019-02-17T13:21:46.241Z,101488.51
2019-02-17T13:26:40.877Z,101478.44
2019-02-17T13:31:33.792Z,101476.73
2019-02-17T13:36:26.657Z,101471.31
2019-02-17T13:41:19.565Z,101466.34
2019-02-17T13:46:12.519Z,101461.39
2019-02-17T13:51:05.406Z,101459.88
2019-02-17T13:55:58.282Z,101456.93
2019-02-17T14:00:51.159Z,101452.23
2019-02-17T14:05:44.049Z,101447.34
2019-02-17T14:10:36.946Z,101444.60
2019-02-17T14:15:31.478Z,101433.93
2019-02-17T14:20:24.361Z,101437.09
2019-02-17T14:25:17.255Z,101426.30
2019-02-17T14:30:11.187Z,101419.61
2019-02-17T14:35:04.357Z,101416.09
2019-02-17T14:39:57.272Z,101422.73
2019-02-17T14:44:50.149Z,101417.41
2019-02-17T14:49:43.055Z,101413.69
2019-02-17T14:54:35.972Z,101410.07
2019-02-17T14:59:30.662Z,101406.59
2019-02-17T15:04:23.558Z,101402.31
2019-02-17T15:09:17.667Z,101401.09
2019-02-17T15:14:10.542Z,101397.73
2019-02-17T15:19:03.486Z,101395.72
2019-02-17T15:23:56.719Z,101409.50
2019-02-17T15:28:51.317Z,101412.28
2019-02-17T15:33:44.518Z,101408.47
2019-02-17T15:38:37.409Z,101409.30
2019-02-17T15:43:30.262Z,101406.56
2019-02-17T15:48:24.258Z,101408.59
2019-02-17T15:53:17.130Z,101405.68
2019-02-17T15:58:10.017Z,101404.86
2019-02-17T16:03:02.890Z,101393.09
2019-02-17T16:07:55.765Z,101394.32
2019-02-17T16:12:48.655Z,101392.94
2019-02-17T16:17:41.588Z,101399.51
2019-02-17T16:22:34.456Z,101395.39
2019-02-17T16:27:27.311Z,101399.53
2019-02-17T16:32:21.728Z,101398.30
2019-02-17T16:37:14.743Z,101394.23
2019-02-17T16:42:07.643Z,101394.61
2019-02-17T16:47:00.510Z,101408.52
2019-02-17T16:51:53.372Z,101407.94
2019-02-17T16:56:46.281Z,101416.02
2019-02-17T17:01:39.176Z,101416.32
2019-02-17T17:06:32.138Z,101421.21
2019-02-17T17:11:25.009Z,101423.96
2019-02-17T17:16:17.877Z,101431.03
2019-02-17T17:21:10.782Z,101437.41
2019-02-17T17:26:04.335Z,101446.76
2019-02-17T17:30:57.273Z,101457.48
2019-02-17T17:35:50.149Z,101464.42
2019-02-17T17:40:43.121Z,101468.50
2019-02-17T17:45:36.024Z,101469.66
2019-02-17T17:50:30.108Z,101478.16
2019-02-17T17:55:23.091Z,101486.76
2019-02-17T18:00:31.840Z,101484.42
2019-02-17T18:05:25.230Z,101491.61
2019-02-17T18:10:18.117Z,101491.20
2019-02-17T18:15:12.136Z,101492.56
2019-02-17T18:20:06.293Z,101494.30
2019-02-17T18:24:59.187Z,101495.87
2019-02-17T18:29:52.056Z,101505.27
2019-02-17T18:34:44.999Z,101506.62
2019-02-17T18:39:37.887Z,101506.28
2019-02-17T18:44:30.811Z,101507.62
2019-02-17T18:49:23.681Z,101508.38
2019-02-17T18:54:16.805Z,101513.24
2019-02-17T18:59:10.800Z,101509.94
2019-02-17T19:04:03.930Z,101516.05
2019-02-17T19:08:56.832Z,101513.13
2019-02-17T19:13:49.732Z,101516.75
2019-02-17T19:18:42.665Z,101519.55
2019-02-17T19:23:35.555Z,101520.77
2019-02-17T19:28:28.461Z,101520.00
2019-02-17T19:33:21.369Z,101519.88
2019-02-17T19:38:14.219Z,101527.98
2019-02-17T19:43:07.109Z,101530.81
2019-02-17T19:47:59.987Z,101543.11
2019-02-17T19:52:52.871Z,101546.53
2019-02-17T19:57:45.761Z,101545.11
2019-02-17T20:03:04.467Z,101542.27
2019-02-17T20:07:57.323Z,101541.75
2019-02-17T20:12:50.218Z,101550.45
2019-02-17T20:17:43.124Z,101552.34
2019-02-17T20:22:35.977Z,101557.31
2019-02-17T20:27:28.935Z,101557.45
2019-02-17T20:32:21.925Z,101561.75
2019-02-17T20:37:15.304Z,101564.19
2019-02-17T20:42:09.258Z,101560.81
2019-02-17T20:47:02.140Z,101556.53
2019-02-17T20:51:58.771Z,101558.95
2019-02-17T20:56:52.387Z,101561.58
2019-02-17T21:01:45.240Z,101563.86
2019-02-17T21:06:38.353Z,101565.25
2019-02-17T21:11:33.606Z,101562.93
2019-02-17T21:16:26.556Z,101557.48
2019-02-17T21:21:19.451Z,101564.41
2019-02-17T21:26:12.357Z,101569.17
2019-02-17T21:31:05.223Z,101568.73
2019-02-17T21:35:58.135Z,101571.52
2019-02-17T21:40:51.059Z,101573.55
2019-02-17T21:45:45.392Z,101568.50
2019-02-17T21:50:38.273Z,101566.64
2019-02-17T21:55:31.144Z,101562.50
2019-02-17T22:00:24.006Z,101560.62
2019-02-17T22:05:17.192Z,101558.85
2019-02-17T22:10:11.048Z,101560.22
2019-02-17T22:15:05.931Z,101560.11
2019-02-17T22:19:58.828Z,101558.92
2019-02-17T22:24:51.701Z,101557.02
2019-02-17T22:29:46.199Z,101555.96
2019-02-17T22:34:39.311Z,101554.73
2019-02-17T22:39:33.385Z,101552.98
2019-02-17T22:44:27.465Z,101541.64
2019-02-17T22:49:21.897Z,101545.73
2019-02-17T22:54:14.922Z,101542.78
2019-02-17T22:59:07.790Z,101539.92
2019-02-17T23:04:01.791Z,101543.45
2019-02-17T23:08:54.735Z,101545.70
2019-02-17T23:13:47.638Z,101553.90
2019-02-17T23:18:40.516Z,101549.09
2019-02-17T23:23:33.418Z,101543.73
2019-02-17T23:28:28.592Z,101549.72
2019-02-17T23:33:21.513Z,101549.88
2019-02-17T23:38:14.366Z,101544.91
2019-02-17T23:43:07.246Z,101545.68
2019-02-17T23:48:00.111Z,101549.87
2019-02-17T23:52:54.641Z,101542.50
2019-02-17T23:57:49.556Z,101541.55
